AGJ812 LGIR-LGTS
Flight info
| Callsign | AGJ812 |
|---|---|
| Flight time | 0h 59m |
| Altitude | 32000 |
| Route | EPALO M749 DIRMI UM749 SIGFO DCT BAMOS UL617 LEKPO |
| Aircraft | A346/H-SDE2E3FGHIJ3J4J5M1RWXY/LB1D1 |
Departure
| Time | 2026-05-06 20:05 |
|---|---|
| Airport | Heraklion International Nikos Kazantzakis Airport (LGIR) |
Arrival
| Time | 2026-05-06 21:05 |
|---|---|
| Airport | Thessaloniki Macedonia International Airport (LGTS) |
| Time | Latitude | Longitude | Altitude | Speed | Heading |
|---|---|---|---|---|---|
| 2026-05-06 19:18 | 35.33855 | 25.17309 | 99 ft | 0 kts | 316° |
| 2026-05-06 19:58 | 35.33856 | 25.17307 | 99 ft | 1 kts | 316° |
| 2026-05-06 19:59 | 35.33872 | 25.17288 | 101 ft | 5 kts | 316° |
| 2026-05-06 19:59 | 35.33903 | 25.17277 | 101 ft | 5 kts | 24° |
| 2026-05-06 19:59 | 35.33922 | 25.17329 | 100 ft | 9 kts | 86° |
| 2026-05-06 19:59 | 35.33918 | 25.17420 | 99 ft | 12 kts | 95° |
| 2026-05-06 20:00 | 35.33910 | 25.17537 | 102 ft | 15 kts | 95° |
| 2026-05-06 20:00 | 35.33900 | 25.17678 | 100 ft | 18 kts | 95° |
| 2026-05-06 20:00 | 35.33888 | 25.17846 | 101 ft | 21 kts | 95° |
| 2026-05-06 20:00 | 35.33876 | 25.18020 | 100 ft | 20 kts | 95° |
| 2026-05-06 20:01 | 35.33864 | 25.18197 | 101 ft | 22 kts | 95° |
| 2026-05-06 20:01 | 35.33852 | 25.18367 | 99 ft | 20 kts | 95° |
| 2026-05-06 20:01 | 35.33840 | 25.18546 | 101 ft | 18 kts | 95° |
| 2026-05-06 20:01 | 35.33828 | 25.18712 | 98 ft | 21 kts | 95° |
| 2026-05-06 20:02 | 35.33821 | 25.18822 | 99 ft | 7 kts | 95° |
| 2026-05-06 20:02 | 35.33820 | 25.18833 | 99 ft | 0 kts | 95° |
| 2026-05-06 20:02 | 35.33819 | 25.18847 | 98 ft | 3 kts | 95° |
| 2026-05-06 20:02 | 35.33816 | 25.18888 | 98 ft | 6 kts | 94° |
| 2026-05-06 20:03 | 35.33826 | 25.18954 | 99 ft | 10 kts | 58° |
| 2026-05-06 20:03 | 35.33859 | 25.19015 | 99 ft | 7 kts | 56° |
| 2026-05-06 20:03 | 35.33883 | 25.19058 | 101 ft | 0 kts | 56° |
| 2026-05-06 20:03 | 35.33886 | 25.19062 | 101 ft | 1 kts | 41° |
| 2026-05-06 20:04 | 35.33891 | 25.19065 | 101 ft | 1 kts | 14° |
| 2026-05-06 20:04 | 35.33902 | 25.19058 | 101 ft | 4 kts | 321° |
| 2026-05-06 20:04 | 35.33909 | 25.19025 | 99 ft | 0 kts | 271° |
| 2026-05-06 20:04 | 35.33909 | 25.19016 | 99 ft | 9 kts | 271° |
| 2026-05-06 20:05 | 35.33936 | 25.18575 | 98 ft | 98 kts | 274° |
| 2026-05-06 20:05 | 35.34016 | 25.17388 | 114 ft | 175 kts | 275° |
| 2026-05-06 20:05 | 35.34146 | 25.15816 | 933 ft | 185 kts | 275° |
| 2026-05-06 20:05 | 35.34599 | 25.14362 | 2028 ft | 185 kts | 311° |
| 2026-05-06 20:06 | 35.35687 | 25.13597 | 2968 ft | 184 kts | 347° |
| 2026-05-06 20:06 | 35.36986 | 25.13370 | 3638 ft | 198 kts | 351° |
| 2026-05-06 20:06 | 35.38418 | 25.13061 | 4242 ft | 214 kts | 348° |
| 2026-05-06 20:06 | 35.39912 | 25.12646 | 4809 ft | 233 kts | 346° |
| 2026-05-06 20:07 | 35.41550 | 25.12122 | 5391 ft | 253 kts | 345° |
| 2026-05-06 20:07 | 35.43310 | 25.11513 | 6099 ft | 268 kts | 344° |
| 2026-05-06 20:07 | 35.45120 | 25.10864 | 7064 ft | 272 kts | 344° |
| 2026-05-06 20:07 | 35.46938 | 25.10204 | 8095 ft | 274 kts | 343° |
| 2026-05-06 20:08 | 35.48780 | 25.09530 | 9099 ft | 277 kts | 343° |
| 2026-05-06 20:08 | 35.50614 | 25.08853 | 10071 ft | 281 kts | 343° |
| 2026-05-06 20:08 | 35.52510 | 25.08149 | 10853 ft | 289 kts | 342° |
| 2026-05-06 20:08 | 35.54488 | 25.07412 | 11410 ft | 306 kts | 342° |
| 2026-05-06 20:09 | 35.56590 | 25.06628 | 11884 ft | 324 kts | 342° |
| 2026-05-06 20:09 | 35.58814 | 25.05797 | 12374 ft | 343 kts | 342° |
| 2026-05-06 20:09 | 35.61170 | 25.04918 | 12831 ft | 361 kts | 342° |
| 2026-05-06 20:09 | 35.63595 | 25.04012 | 13484 ft | 372 kts | 342° |
| 2026-05-06 20:10 | 35.66092 | 25.03080 | 14362 ft | 375 kts | 342° |
| 2026-05-06 20:10 | 35.68606 | 25.02142 | 15227 ft | 377 kts | 342° |
| 2026-05-06 20:10 | 35.71094 | 25.01194 | 16050 ft | 381 kts | 340° |
| 2026-05-06 20:10 | 35.73613 | 25.00081 | 16860 ft | 385 kts | 338° |
| 2026-05-06 20:11 | 35.76114 | 24.98913 | 17629 ft | 390 kts | 338° |
| 2026-05-06 20:11 | 35.78664 | 24.97711 | 18422 ft | 394 kts | 338° |
| 2026-05-06 20:11 | 35.81254 | 24.96487 | 19122 ft | 398 kts | 338° |
| 2026-05-06 20:11 | 35.83857 | 24.95257 | 19800 ft | 402 kts | 338° |
| 2026-05-06 20:12 | 35.86490 | 24.94014 | 20468 ft | 407 kts | 338° |
| 2026-05-06 20:12 | 35.89116 | 24.92775 | 21134 ft | 411 kts | 338° |
| 2026-05-06 20:12 | 35.91803 | 24.91507 | 21793 ft | 415 kts | 338° |
| 2026-05-06 20:12 | 35.94526 | 24.90222 | 22468 ft | 420 kts | 338° |
| 2026-05-06 20:13 | 35.97270 | 24.88926 | 23096 ft | 424 kts | 338° |
| 2026-05-06 20:13 | 36.00004 | 24.87633 | 23732 ft | 428 kts | 338° |
| 2026-05-06 20:13 | 36.02850 | 24.86288 | 24283 ft | 433 kts | 338° |
| 2026-05-06 20:13 | 36.05651 | 24.84995 | 24840 ft | 436 kts | 340° |
| 2026-05-06 20:14 | 36.08540 | 24.83803 | 25410 ft | 439 kts | 341° |
| 2026-05-06 20:14 | 36.11466 | 24.82632 | 25977 ft | 442 kts | 341° |
| 2026-05-06 20:14 | 36.14413 | 24.81459 | 26527 ft | 445 kts | 341° |
| 2026-05-06 20:14 | 36.17370 | 24.80281 | 27066 ft | 448 kts | 341° |
| 2026-05-06 20:15 | 36.20148 | 24.79173 | 27693 ft | 448 kts | 341° |
| 2026-05-06 20:15 | 36.23112 | 24.77989 | 28522 ft | 444 kts | 341° |
| 2026-05-06 20:15 | 36.25999 | 24.76834 | 29360 ft | 441 kts | 340° |
| 2026-05-06 20:15 | 36.28915 | 24.75666 | 30166 ft | 438 kts | 340° |
| 2026-05-06 20:16 | 36.31819 | 24.74501 | 30813 ft | 437 kts | 340° |
| 2026-05-06 20:16 | 36.34719 | 24.73334 | 31360 ft | 438 kts | 340° |
| 2026-05-06 20:16 | 36.37625 | 24.72165 | 31845 ft | 440 kts | 340° |
| 2026-05-06 20:16 | 36.40552 | 24.70986 | 32083 ft | 442 kts | 340° |
| 2026-05-06 20:17 | 36.46392 | 24.68632 | 32091 ft | 442 kts | 340° |
| 2026-05-06 20:17 | 36.52247 | 24.66269 | 32094 ft | 442 kts | 340° |
| 2026-05-06 20:18 | 36.58106 | 24.63901 | 32090 ft | 442 kts | 340° |
| 2026-05-06 20:18 | 36.63926 | 24.61545 | 32094 ft | 442 kts | 340° |
| 2026-05-06 20:19 | 36.69785 | 24.59169 | 32089 ft | 442 kts | 340° |
| 2026-05-06 20:19 | 36.75616 | 24.56801 | 32086 ft | 442 kts | 340° |
| 2026-05-06 20:20 | 36.81486 | 24.54414 | 32085 ft | 442 kts | 340° |
| 2026-05-06 20:20 | 36.87304 | 24.52043 | 32089 ft | 441 kts | 340° |
| 2026-05-06 20:21 | 36.93144 | 24.49660 | 32087 ft | 442 kts | 340° |
| 2026-05-06 20:21 | 36.99068 | 24.47237 | 32083 ft | 453 kts | 340° |
| 2026-05-06 20:22 | 37.04980 | 24.44820 | 32082 ft | 442 kts | 340° |
| 2026-05-06 20:22 | 37.10789 | 24.42438 | 32082 ft | 441 kts | 340° |
| 2026-05-06 20:23 | 37.16633 | 24.40037 | 32083 ft | 441 kts | 340° |
| 2026-05-06 20:23 | 37.22468 | 24.37637 | 32081 ft | 441 kts | 340° |
| 2026-05-06 20:24 | 37.28259 | 24.35250 | 32085 ft | 440 kts | 340° |
| 2026-05-06 20:24 | 37.34082 | 24.32847 | 32082 ft | 440 kts | 340° |
| 2026-05-06 20:25 | 37.39909 | 24.30438 | 32085 ft | 440 kts | 340° |
| 2026-05-06 20:25 | 37.45718 | 24.28032 | 32083 ft | 439 kts | 340° |
| 2026-05-06 20:26 | 37.50553 | 24.26026 | 32085 ft | 439 kts | 340° |
| 2026-05-06 20:26 | 37.56402 | 24.23597 | 32085 ft | 439 kts | 340° |
| 2026-05-06 20:27 | 37.62175 | 24.21196 | 32084 ft | 439 kts | 340° |
| 2026-05-06 20:27 | 37.67985 | 24.18774 | 32090 ft | 438 kts | 340° |
| 2026-05-06 20:28 | 37.73786 | 24.16353 | 32094 ft | 438 kts | 340° |
| 2026-05-06 20:28 | 37.79553 | 24.13942 | 32098 ft | 438 kts | 340° |
| 2026-05-06 20:29 | 37.85346 | 24.11516 | 32100 ft | 438 kts | 340° |
| 2026-05-06 20:29 | 37.91112 | 24.09097 | 32104 ft | 437 kts | 340° |
| 2026-05-06 20:30 | 37.99764 | 24.05461 | 32104 ft | 437 kts | 340° |
| 2026-05-06 20:31 | 38.05547 | 24.03025 | 32100 ft | 437 kts | 340° |
| 2026-05-06 20:31 | 38.11335 | 24.00583 | 32099 ft | 437 kts | 340° |
| 2026-05-06 20:32 | 38.17073 | 23.98158 | 32098 ft | 437 kts | 340° |
| 2026-05-06 20:32 | 38.22870 | 23.95704 | 32092 ft | 437 kts | 340° |
| 2026-05-06 20:33 | 38.28638 | 23.93258 | 32079 ft | 437 kts | 340° |
| 2026-05-06 20:33 | 38.34416 | 23.90803 | 32079 ft | 437 kts | 340° |
| 2026-05-06 20:34 | 38.40152 | 23.88363 | 32080 ft | 437 kts | 340° |
| 2026-05-06 20:34 | 38.45926 | 23.85902 | 32076 ft | 437 kts | 340° |
| 2026-05-06 20:35 | 38.51708 | 23.83434 | 32069 ft | 437 kts | 340° |
| 2026-05-06 20:35 | 38.57491 | 23.80961 | 32070 ft | 438 kts | 340° |
| 2026-05-06 20:36 | 38.63248 | 23.78495 | 32067 ft | 438 kts | 340° |
| 2026-05-06 20:36 | 38.69042 | 23.76008 | 32064 ft | 438 kts | 340° |
| 2026-05-06 20:37 | 38.74823 | 23.73523 | 32067 ft | 438 kts | 340° |
| 2026-05-06 20:37 | 38.80570 | 23.71048 | 32068 ft | 438 kts | 340° |
| 2026-05-06 20:38 | 38.86353 | 23.68554 | 32061 ft | 438 kts | 340° |
| 2026-05-06 20:38 | 38.92138 | 23.66086 | 32061 ft | 438 kts | 341° |
| 2026-05-06 20:39 | 38.98064 | 23.64161 | 32055 ft | 439 kts | 346° |
| 2026-05-06 20:39 | 39.04058 | 23.62618 | 32057 ft | 439 kts | 347° |
| 2026-05-06 20:40 | 39.10015 | 23.61105 | 32056 ft | 438 kts | 347° |
| 2026-05-06 20:40 | 39.16007 | 23.59574 | 32009 ft | 438 kts | 347° |
| 2026-05-06 20:40 | 39.19007 | 23.58805 | 31554 ft | 438 kts | 347° |
| 2026-05-06 20:41 | 39.21984 | 23.58041 | 31038 ft | 436 kts | 347° |
| 2026-05-06 20:41 | 39.24930 | 23.57284 | 30470 ft | 436 kts | 347° |
| 2026-05-06 20:41 | 39.27892 | 23.56409 | 29805 ft | 436 kts | 344° |
| 2026-05-06 20:41 | 39.30812 | 23.55339 | 29128 ft | 435 kts | 341° |
| 2026-05-06 20:42 | 39.33673 | 23.54081 | 28466 ft | 434 kts | 339° |
| 2026-05-06 20:42 | 39.36527 | 23.52721 | 27807 ft | 434 kts | 338° |
| 2026-05-06 20:42 | 39.39362 | 23.51344 | 27147 ft | 434 kts | 338° |
| 2026-05-06 20:42 | 39.42156 | 23.49985 | 26500 ft | 434 kts | 338° |
| 2026-05-06 20:43 | 39.44982 | 23.48616 | 26041 ft | 429 kts | 338° |
| 2026-05-06 20:43 | 39.47770 | 23.47267 | 25617 ft | 425 kts | 338° |
| 2026-05-06 20:43 | 39.50532 | 23.45930 | 25191 ft | 421 kts | 338° |
| 2026-05-06 20:43 | 39.53258 | 23.44609 | 24760 ft | 417 kts | 338° |
| 2026-05-06 20:44 | 39.55975 | 23.43291 | 24335 ft | 413 kts | 338° |
| 2026-05-06 20:44 | 39.58622 | 23.42006 | 23908 ft | 411 kts | 338° |
| 2026-05-06 20:44 | 39.61300 | 23.40704 | 23450 ft | 408 kts | 338° |
| 2026-05-06 20:44 | 39.63948 | 23.39416 | 22979 ft | 405 kts | 338° |
| 2026-05-06 20:45 | 39.66579 | 23.38135 | 22532 ft | 401 kts | 337° |
| 2026-05-06 20:45 | 39.69184 | 23.36866 | 22077 ft | 398 kts | 337° |
| 2026-05-06 20:45 | 39.71769 | 23.35605 | 21636 ft | 395 kts | 337° |
| 2026-05-06 20:45 | 39.74335 | 23.34353 | 21201 ft | 392 kts | 337° |
| 2026-05-06 20:46 | 39.76852 | 23.33123 | 20772 ft | 390 kts | 337° |
| 2026-05-06 20:46 | 39.79385 | 23.31884 | 20334 ft | 388 kts | 337° |
| 2026-05-06 20:46 | 39.81913 | 23.30646 | 19892 ft | 386 kts | 337° |
| 2026-05-06 20:46 | 39.84419 | 23.29417 | 19462 ft | 385 kts | 337° |
| 2026-05-06 20:47 | 39.86922 | 23.28189 | 19019 ft | 384 kts | 337° |
| 2026-05-06 20:47 | 39.89422 | 23.26962 | 18578 ft | 382 kts | 337° |
| 2026-05-06 20:47 | 39.91918 | 23.25736 | 18101 ft | 382 kts | 337° |
| 2026-05-06 20:47 | 39.94402 | 23.24515 | 17631 ft | 380 kts | 337° |
| 2026-05-06 20:48 | 39.96873 | 23.23300 | 17161 ft | 378 kts | 337° |
| 2026-05-06 20:48 | 39.99300 | 23.22106 | 16719 ft | 376 kts | 338° |
| 2026-05-06 20:48 | 40.01759 | 23.20895 | 16274 ft | 375 kts | 338° |
| 2026-05-06 20:48 | 40.04196 | 23.19695 | 15834 ft | 373 kts | 338° |
| 2026-05-06 20:49 | 40.06634 | 23.18492 | 15388 ft | 372 kts | 338° |
| 2026-05-06 20:49 | 40.09024 | 23.17312 | 14965 ft | 371 kts | 338° |
| 2026-05-06 20:49 | 40.11440 | 23.16119 | 14520 ft | 370 kts | 338° |
| 2026-05-06 20:49 | 40.13850 | 23.14928 | 14073 ft | 369 kts | 338° |
| 2026-05-06 20:50 | 40.16253 | 23.13740 | 13618 ft | 368 kts | 338° |
| 2026-05-06 20:50 | 40.18653 | 23.12552 | 13162 ft | 366 kts | 338° |
| 2026-05-06 20:50 | 40.21033 | 23.11374 | 12719 ft | 364 kts | 338° |
| 2026-05-06 20:50 | 40.23397 | 23.10201 | 12290 ft | 362 kts | 338° |
| 2026-05-06 20:51 | 40.25721 | 23.09048 | 11856 ft | 360 kts | 338° |
| 2026-05-06 20:51 | 40.28062 | 23.07886 | 11437 ft | 358 kts | 338° |
| 2026-05-06 20:51 | 40.30397 | 23.06726 | 11019 ft | 355 kts | 338° |
| 2026-05-06 20:51 | 40.32697 | 23.05583 | 10764 ft | 346 kts | 338° |
| 2026-05-06 20:52 | 40.34901 | 23.04489 | 10671 ft | 332 kts | 338° |
| 2026-05-06 20:52 | 40.36996 | 23.03446 | 10561 ft | 319 kts | 338° |
| 2026-05-06 20:52 | 40.39029 | 23.02433 | 10450 ft | 305 kts | 338° |
| 2026-05-06 20:52 | 40.40979 | 23.01461 | 10347 ft | 292 kts | 338° |
| 2026-05-06 20:53 | 40.42843 | 23.00531 | 10250 ft | 281 kts | 338° |
| 2026-05-06 20:53 | 40.44651 | 22.99628 | 10168 ft | 275 kts | 338° |
| 2026-05-06 20:53 | 40.46399 | 22.98654 | 10088 ft | 271 kts | 334° |
| 2026-05-06 20:53 | 40.48080 | 22.97595 | 9790 ft | 272 kts | 333° |
| 2026-05-06 20:54 | 40.49780 | 22.96505 | 9436 ft | 271 kts | 333° |
| 2026-05-06 20:54 | 40.51474 | 22.95417 | 9129 ft | 269 kts | 333° |
| 2026-05-06 20:54 | 40.53158 | 22.94336 | 8831 ft | 268 kts | 333° |
| 2026-05-06 20:54 | 40.54835 | 22.93261 | 8548 ft | 267 kts | 333° |
| 2026-05-06 20:55 | 40.56509 | 22.92188 | 8258 ft | 266 kts | 333° |
| 2026-05-06 20:55 | 40.58174 | 22.91119 | 7972 ft | 266 kts | 333° |
| 2026-05-06 20:55 | 40.59814 | 22.90067 | 7693 ft | 265 kts | 333° |
| 2026-05-06 20:55 | 40.61474 | 22.89002 | 7409 ft | 264 kts | 333° |
| 2026-05-06 20:56 | 40.63130 | 22.87939 | 7111 ft | 264 kts | 333° |
| 2026-05-06 20:56 | 40.64782 | 22.86877 | 6834 ft | 263 kts | 333° |
| 2026-05-06 20:56 | 40.66406 | 22.85833 | 6544 ft | 261 kts | 333° |
| 2026-05-06 20:56 | 40.68038 | 22.84783 | 6259 ft | 259 kts | 333° |
| 2026-05-06 20:57 | 40.69659 | 22.83740 | 5961 ft | 257 kts | 333° |
| 2026-05-06 20:57 | 40.71264 | 22.82706 | 5699 ft | 256 kts | 333° |
| 2026-05-06 20:57 | 40.72871 | 22.81670 | 5415 ft | 256 kts | 333° |
| 2026-05-06 20:57 | 40.74478 | 22.80661 | 5133 ft | 256 kts | 339° |
| 2026-05-06 20:58 | 40.76240 | 22.80376 | 4861 ft | 262 kts | 9° |
| 2026-05-06 20:58 | 40.77927 | 22.81313 | 4665 ft | 272 kts | 39° |
| 2026-05-06 20:58 | 40.79069 | 22.83269 | 4428 ft | 269 kts | 70° |
| 2026-05-06 20:58 | 40.79321 | 22.85672 | 4138 ft | 263 kts | 100° |
| 2026-05-06 20:59 | 40.78677 | 22.87873 | 3870 ft | 258 kts | 128° |
| 2026-05-06 20:59 | 40.77324 | 22.89368 | 3673 ft | 247 kts | 158° |
| 2026-05-06 20:59 | 40.75723 | 22.89921 | 3564 ft | 234 kts | 171° |
| 2026-05-06 20:59 | 40.74106 | 22.90268 | 3523 ft | 235 kts | 171° |
| 2026-05-06 21:00 | 40.72515 | 22.90652 | 3275 ft | 235 kts | 169° |
| 2026-05-06 21:00 | 40.70929 | 22.91093 | 2947 ft | 228 kts | 167° |
| 2026-05-06 21:00 | 40.69462 | 22.91535 | 2945 ft | 203 kts | 167° |
| 2026-05-06 21:00 | 40.68164 | 22.91941 | 2895 ft | 180 kts | 167° |
| 2026-05-06 21:01 | 40.67013 | 22.92303 | 2751 ft | 163 kts | 167° |
| 2026-05-06 21:01 | 40.65919 | 22.92648 | 2634 ft | 161 kts | 167° |
| 2026-05-06 21:01 | 40.64828 | 22.92993 | 2423 ft | 159 kts | 167° |
| 2026-05-06 21:01 | 40.63767 | 22.93330 | 2207 ft | 158 kts | 166° |
| 2026-05-06 21:02 | 40.62691 | 22.93673 | 2019 ft | 158 kts | 166° |
| 2026-05-06 21:02 | 40.61626 | 22.94013 | 1810 ft | 157 kts | 166° |
| 2026-05-06 21:02 | 40.60561 | 22.94353 | 1589 ft | 157 kts | 166° |
| 2026-05-06 21:02 | 40.59498 | 22.94693 | 1383 ft | 156 kts | 166° |
| 2026-05-06 21:03 | 40.58445 | 22.95029 | 1166 ft | 158 kts | 166° |
| 2026-05-06 21:03 | 40.57333 | 22.95389 | 1019 ft | 166 kts | 165° |
| 2026-05-06 21:03 | 40.56241 | 22.95739 | 754 ft | 157 kts | 166° |
| 2026-05-06 21:03 | 40.55190 | 22.96066 | 457 ft | 154 kts | 166° |
| 2026-05-06 21:04 | 40.54144 | 22.96401 | 268 ft | 154 kts | 166° |
| 2026-05-06 21:04 | 40.53116 | 22.96732 | 96 ft | 153 kts | 166° |
| 2026-05-06 21:04 | 40.52150 | 22.97042 | 35 ft | 119 kts | 166° |
| 2026-05-06 21:04 | 40.51532 | 22.97238 | 39 ft | 73 kts | 166° |
| 2026-05-06 21:05 | 40.51153 | 22.97358 | 37 ft | 42 kts | 166° |
| 2026-05-06 21:05 | 40.51003 | 22.97410 | 36 ft | 14 kts | 154° |
| 2026-05-06 21:05 | 40.50962 | 22.97528 | 36 ft | 17 kts | 69° |
| 2026-05-06 21:05 | 40.51057 | 22.97570 | 37 ft | 17 kts | 347° |
| 2026-05-06 21:06 | 40.51184 | 22.97529 | 37 ft | 20 kts | 346° |
| 2026-05-06 21:06 | 40.51333 | 22.97482 | 37 ft | 23 kts | 347° |
| 2026-05-06 21:06 | 40.51483 | 22.97435 | 37 ft | 20 kts | 346° |
| 2026-05-06 21:06 | 40.51626 | 22.97390 | 37 ft | 20 kts | 346° |
| 2026-05-06 21:07 | 40.51772 | 22.97343 | 37 ft | 23 kts | 346° |
| 2026-05-06 21:07 | 40.51908 | 22.97299 | 35 ft | 21 kts | 346° |
| 2026-05-06 21:07 | 40.52060 | 22.97251 | 36 ft | 23 kts | 346° |
| 2026-05-06 21:07 | 40.52196 | 22.97207 | 36 ft | 19 kts | 346° |
| 2026-05-06 21:08 | 40.52302 | 22.97173 | 37 ft | 0 kts | 346° |
| 2026-05-06 21:08 | 40.52311 | 22.97171 | 37 ft | 3 kts | 346° |
| 2026-05-06 21:08 | 40.52341 | 22.97166 | 37 ft | 6 kts | 9° |
| 2026-05-06 21:08 | 40.52379 | 22.97205 | 37 ft | 9 kts | 54° |
| 2026-05-06 21:09 | 40.52404 | 22.97297 | 37 ft | 12 kts | 76° |
| 2026-05-06 21:09 | 40.52448 | 22.97376 | 37 ft | 0 kts | 44° |